Time,TemperatureF,DewpointF,PressureIn,WindDirection,WindDirectionDegrees,WindSpeedMPH,WindSpeedGustMPH,Humidity,HourlyPrecipIn,Conditions,Clouds,dailyrainin,SolarRadiationWatts/m^2,SoftwareType,DateUTC
2013-05-12 00:02:00,39.0,28.0,-100.00,NW,310,6.0,15.0,64,0.00,,,0.00,0.000000,,2013-05-12 05:02:00,
2013-05-12 00:32:00,38.0,27.0,-100.00,NW,310,9.0,18.0,65,0.00,,,0.00,0.000000,,2013-05-12 05:32:00,
2013-05-12 00:42:00,38.0,27.0,-100.00,NW,310,9.0,18.0,65,0.00,,,0.00,0.000000,,2013-05-12 05:42:00,
2013-05-12 00:52:00,38.0,27.0,-100.00,NW,310,9.0,18.0,65,0.00,,,0.00,0.000000,,2013-05-12 05:52:00,
2013-05-12 01:01:00,38.0,27.0,-100.00,NW,310,9.0,18.0,65,0.00,,,0.00,0.000000,,2013-05-12 06:01:00,
2013-05-12 01:11:00,38.0,27.0,-100.00,NW,310,9.0,18.0,65,0.00,,,0.00,0.000000,,2013-05-12 06:11:00,
2013-05-12 01:42:00,38.0,26.0,-100.00,NW,323,9.0,17.0,62,0.00,,,0.00,0.000000,,2013-05-12 06:42:00,
2013-05-12 01:52:00,38.0,26.0,-100.00,NW,323,9.0,17.0,62,0.00,,,0.00,0.000000,,2013-05-12 06:52:00,
2013-05-12 02:01:00,38.0,26.0,-100.00,NW,323,9.0,17.0,62,0.00,,,0.00,0.000000,,2013-05-12 07:01:00,
2013-05-12 02:11:00,38.0,26.0,-100.00,NW,323,9.0,17.0,62,0.00,,,0.00,0.000000,,2013-05-12 07:11:00,
2013-05-12 03:32:00,36.0,22.0,-100.00,NW,318,9.0,17.0,57,-99.99,,,0.00,0.000000,,2013-05-12 08:32:00,
2013-05-12 03:42:00,36.0,22.0,-100.00,NW,318,9.0,17.0,57,-99.99,,,0.00,0.000000,,2013-05-12 08:42:00,
2013-05-12 03:53:00,36.0,22.0,-100.00,NW,318,9.0,17.0,57,-99.99,,,0.00,0.000000,,2013-05-12 08:53:00,
2013-05-12 04:01:00,36.0,22.0,-100.00,NW,318,9.0,17.0,57,-99.99,,,0.00,0.000000,,2013-05-12 09:01:00,
2013-05-12 04:11:00,36.0,22.0,-100.00,NW,318,9.0,17.0,57,-99.99,,,0.00,0.000000,,2013-05-12 09:11:00,
2013-05-12 04:12:00,35.0,22.0,-100.00,NW,314,7.0,17.0,58,0.00,,,0.00,0.000000,,2013-05-12 09:12:00,
2013-05-12 04:33:00,35.0,22.0,-100.00,NW,314,7.0,17.0,58,0.00,,,0.00,0.000000,,2013-05-12 09:33:00,
2013-05-12 04:43:00,35.0,22.0,-100.00,NW,314,7.0,17.0,58,0.00,,,0.00,0.000000,,2013-05-12 09:43:00,
2013-05-12 04:53:00,35.0,22.0,-100.00,NW,314,7.0,17.0,58,0.00,,,0.00,0.000000,,2013-05-12 09:53:00,
2013-05-12 05:03:00,35.0,22.0,-100.00,NW,314,7.0,17.0,58,0.00,,,0.00,0.000000,,2013-05-12 10:03:00,
2013-05-12 05:12:00,35.0,22.0,-100.00,NW,320,7.0,16.0,59,0.00,,,0.00,0.000000,,2013-05-12 10:12:00,
2013-05-12 05:33:00,35.0,22.0,-100.00,NW,320,7.0,16.0,59,0.00,,,0.00,0.000000,,2013-05-12 10:33:00,
2013-05-12 05:42:00,35.0,22.0,-100.00,NW,320,7.0,16.0,59,0.00,,,0.00,0.000000,,2013-05-12 10:42:00,
2013-05-12 05:52:00,35.0,22.0,-100.00,NW,320,7.0,16.0,59,0.00,,,0.00,0.000000,,2013-05-12 10:52:00,
2013-05-12 06:02:00,35.0,22.0,-100.00,NW,320,7.0,16.0,59,0.00,,,0.00,0.000000,,2013-05-12 11:02:00,
2013-05-12 06:32:00,35.0,23.0,-100.00,NW,316,7.0,12.0,60,0.00,,,0.00,12.000000,,2013-05-12 11:32:00,
2013-05-12 06:42:00,35.0,23.0,-100.00,NW,316,7.0,12.0,60,0.00,,,0.00,12.000000,,2013-05-12 11:42:00,
2013-05-12 06:52:00,35.0,23.0,-100.00,NW,316,7.0,12.0,60,0.00,,,0.00,12.000000,,2013-05-12 11:52:00,
2013-05-12 07:02:00,35.0,23.0,-100.00,NW,316,7.0,12.0,60,0.00,,,0.00,12.000000,,2013-05-12 12:02:00,
2013-05-12 07:11:00,35.0,23.0,-100.00,NW,316,7.0,12.0,60,0.00,,,0.00,12.000000,,2013-05-12 12:11:00,
2013-05-12 08:42:00,39.0,22.0,-100.00,NW,313,10.0,19.0,51,-99.99,,,0.00,295.000000,,2013-05-12 13:42:00,
2013-05-12 08:52:00,39.0,22.0,-100.00,NW,313,10.0,19.0,51,-99.99,,,0.00,295.000000,,2013-05-12 13:52:00,
2013-05-12 09:01:00,39.0,22.0,-100.00,NW,313,10.0,19.0,51,-99.99,,,0.00,295.000000,,2013-05-12 14:01:00,
2013-05-12 09:11:00,39.0,22.0,-100.00,NW,313,10.0,19.0,51,-99.99,,,0.00,295.000000,,2013-05-12 14:11:00,
2013-05-12 09:42:00,40.0,22.0,-100.00,NNW,330,14.0,27.0,48,0.00,,,0.00,444.000000,,2013-05-12 14:42:00,
2013-05-12 09:52:00,40.0,22.0,-100.00,NNW,330,14.0,27.0,48,0.00,,,0.00,444.000000,,2013-05-12 14:52:00,
2013-05-12 10:01:00,40.0,22.0,-100.00,NNW,330,14.0,27.0,48,0.00,,,0.00,444.000000,,2013-05-12 15:01:00,
2013-05-12 10:11:00,40.0,22.0,-100.00,NNW,330,14.0,27.0,48,0.00,,,0.00,444.000000,,2013-05-12 15:11:00,
2013-05-12 10:12:00,42.0,23.0,-100.00,NNW,335,13.0,25.0,46,0.00,,,-99.99,544.000000,,2013-05-12 15:12:00,
2013-05-12 10:34:00,42.0,23.0,-100.00,NNW,335,13.0,25.0,46,0.00,,,-99.99,544.000000,,2013-05-12 15:34:00,
2013-05-12 10:42:00,42.0,23.0,-100.00,NNW,335,13.0,25.0,46,0.00,,,-99.99,544.000000,,2013-05-12 15:42:00,
2013-05-12 10:53:00,42.0,23.0,-100.00,NNW,335,13.0,25.0,46,0.00,,,-99.99,544.000000,,2013-05-12 15:53:00,
2013-05-12 11:02:00,42.0,23.0,-100.00,NNW,335,13.0,25.0,46,0.00,,,-99.99,544.000000,,2013-05-12 16:02:00,
2013-05-12 11:12:00,44.0,22.0,-100.00,NNW,329,14.0,23.0,41,0.00,,,0.00,649.000000,,2013-05-12 16:12:00,
2013-05-12 11:33:00,44.0,22.0,-100.00,NNW,329,14.0,23.0,41,0.00,,,0.00,649.000000,,2013-05-12 16:33:00,
2013-05-12 11:42:00,44.0,22.0,-100.00,NNW,329,14.0,23.0,41,0.00,,,0.00,649.000000,,2013-05-12 16:42:00,
2013-05-12 11:53:00,44.0,22.0,-100.00,NNW,329,14.0,23.0,41,0.00,,,0.00,649.000000,,2013-05-12 16:53:00,
2013-05-12 12:02:00,44.0,22.0,-100.00,NNW,329,14.0,23.0,41,0.00,,,0.00,649.000000,,2013-05-12 17:02:00,
2013-05-12 12:12:00,47.0,22.0,-100.00,NNW,327,13.0,22.0,37,0.00,,,0.00,838.000000,,2013-05-12 17:12:00,
2013-05-12 12:42:00,47.0,22.0,-100.00,NNW,327,13.0,22.0,37,0.00,,,0.00,838.000000,,2013-05-12 17:42:00,
2013-05-12 12:53:00,47.0,22.0,-100.00,NNW,327,13.0,22.0,37,0.00,,,0.00,838.000000,,2013-05-12 17:53:00,
2013-05-12 13:01:00,47.0,22.0,-100.00,NNW,327,13.0,22.0,37,0.00,,,0.00,838.000000,,2013-05-12 18:01:00,
2013-05-12 13:32:00,49.0,22.0,-100.00,NW,313,10.0,20.0,34,0.00,,,0.00,943.000000,,2013-05-12 18:32:00,
2013-05-12 13:42:00,49.0,22.0,-100.00,NW,313,10.0,20.0,34,0.00,,,0.00,943.000000,,2013-05-12 18:42:00,
2013-05-12 13:52:00,49.0,22.0,-100.00,NW,313,10.0,20.0,34,0.00,,,0.00,943.000000,,2013-05-12 18:52:00,
2013-05-12 14:01:00,49.0,22.0,-100.00,NW,313,10.0,20.0,34,0.00,,,0.00,943.000000,,2013-05-12 19:01:00,
2013-05-12 14:11:00,49.0,22.0,-100.00,NW,313,10.0,20.0,34,0.00,,,0.00,943.000000,,2013-05-12 19:11:00,
2013-05-12 14:32:00,51.0,22.0,-100.00,WNW,300,12.0,22.0,32,0.00,,,0.00,915.000000,,2013-05-12 19:32:00,
2013-05-12 14:42:00,51.0,22.0,-100.00,WNW,300,12.0,22.0,32,0.00,,,0.00,915.000000,,2013-05-12 19:42:00,
2013-05-12 14:52:00,51.0,22.0,-100.00,WNW,300,12.0,22.0,32,0.00,,,0.00,915.000000,,2013-05-12 19:52:00,
2013-05-12 15:02:00,51.0,22.0,-100.00,WNW,300,12.0,22.0,32,0.00,,,0.00,915.000000,,2013-05-12 20:02:00,
2013-05-12 15:11:00,51.0,22.0,-100.00,WNW,300,12.0,22.0,32,0.00,,,0.00,915.000000,,2013-05-12 20:11:00,
2013-05-12 15:42:00,52.0,21.0,-100.00,NW,310,8.0,20.0,29,0.00,,,0.00,779.000000,,2013-05-12 20:42:00,
2013-05-12 15:52:00,52.0,21.0,-100.00,NW,310,8.0,20.0,29,0.00,,,0.00,779.000000,,2013-05-12 20:52:00,
2013-05-12 16:01:00,52.0,21.0,-100.00,NW,310,8.0,20.0,29,0.00,,,0.00,779.000000,,2013-05-12 21:01:00,
2013-05-12 16:11:00,52.0,21.0,-100.00,NW,310,8.0,20.0,29,0.00,,,0.00,779.000000,,2013-05-12 21:11:00,
2013-05-12 16:12:00,52.0,20.0,-100.00,NW,321,10.0,20.0,28,0.00,,,0.00,627.000000,,2013-05-12 21:12:00,
2013-05-12 16:33:00,52.0,20.0,-100.00,NW,321,10.0,20.0,28,0.00,,,0.00,627.000000,,2013-05-12 21:33:00,
2013-05-12 16:42:00,52.0,20.0,-100.00,NW,321,10.0,20.0,28,0.00,,,0.00,627.000000,,2013-05-12 21:42:00,
2013-05-12 16:53:00,52.0,20.0,-100.00,NW,321,10.0,20.0,28,0.00,,,0.00,627.000000,,2013-05-12 21:53:00,
2013-05-12 17:02:00,52.0,20.0,-100.00,NW,321,10.0,20.0,28,0.00,,,0.00,627.000000,,2013-05-12 22:02:00,
2013-05-12 17:12:00,53.0,21.0,-100.00,NNW,331,13.0,22.0,28,0.00,,,0.00,452.000000,,2013-05-12 22:12:00,
2013-05-12 17:33:00,53.0,21.0,-100.00,NNW,331,13.0,22.0,28,0.00,,,0.00,452.000000,,2013-05-12 22:33:00,
2013-05-12 17:42:00,53.0,21.0,-100.00,NNW,331,13.0,22.0,28,0.00,,,0.00,452.000000,,2013-05-12 22:42:00,
2013-05-12 17:52:00,53.0,21.0,-100.00,NNW,331,13.0,22.0,28,0.00,,,0.00,452.000000,,2013-05-12 22:52:00,
2013-05-12 18:02:00,53.0,21.0,-100.00,NNW,331,13.0,22.0,28,0.00,,,0.00,452.000000,,2013-05-12 23:02:00,
2013-05-12 18:42:00,52.0,18.0,-100.00,NW,324,13.0,21.0,26,0.00,,,0.00,312.000000,,2013-05-12 23:42:00,
2013-05-12 18:52:00,52.0,18.0,-100.00,NW,324,13.0,21.0,26,0.00,,,0.00,312.000000,,2013-05-12 23:52:00,
2013-05-12 19:01:00,52.0,18.0,-100.00,NW,324,13.0,21.0,26,0.00,,,0.00,312.000000,,2013-05-13 00:01:00,
2013-05-12 19:11:00,52.0,18.0,-100.00,NW,324,13.0,21.0,26,0.00,,,0.00,312.000000,,2013-05-13 00:11:00,
2013-05-12 20:42:00,49.0,17.0,-100.00,NW,315,8.0,14.0,28,-99.99,,,0.00,52.000000,,2013-05-13 01:42:00,
2013-05-12 20:52:00,49.0,17.0,-100.00,NW,315,8.0,14.0,28,-99.99,,,0.00,52.000000,,2013-05-13 01:52:00,
2013-05-12 21:01:00,49.0,17.0,-100.00,NW,315,8.0,14.0,28,-99.99,,,0.00,52.000000,,2013-05-13 02:01:00,
2013-05-12 21:11:00,49.0,17.0,-100.00,NW,315,8.0,14.0,28,-99.99,,,0.00,52.000000,,2013-05-13 02:11:00,
2013-05-12 21:32:00,45.0,18.0,-100.00,NW,310,4.0,9.0,34,0.00,,,0.00,1.000000,,2013-05-13 02:32:00,
2013-05-12 21:42:00,45.0,18.0,-100.00,NW,310,4.0,9.0,34,0.00,,,0.00,1.000000,,2013-05-13 02:42:00,
2013-05-12 21:52:00,45.0,18.0,-100.00,NW,310,4.0,9.0,34,0.00,,,0.00,1.000000,,2013-05-13 02:52:00,
2013-05-12 22:02:00,45.0,18.0,-100.00,NW,310,4.0,9.0,34,0.00,,,0.00,1.000000,,2013-05-13 03:02:00,
2013-05-12 22:11:00,45.0,18.0,-100.00,NW,310,4.0,9.0,34,0.00,,,0.00,1.000000,,2013-05-13 03:11:00,
2013-05-12 22:12:00,44.0,19.0,-100.00,NE,49,3.0,8.0,37,0.00,,,0.00,0.000000,,2013-05-13 03:12:00,
2013-05-12 22:33:00,44.0,19.0,-100.00,NE,49,3.0,8.0,37,0.00,,,0.00,0.000000,,2013-05-13 03:33:00,
2013-05-12 22:42:00,44.0,19.0,-100.00,NE,49,3.0,8.0,37,0.00,,,0.00,0.000000,,2013-05-13 03:42:00,
2013-05-12 22:53:00,44.0,19.0,-100.00,NE,49,3.0,8.0,37,0.00,,,0.00,0.000000,,2013-05-13 03:53:00,
2013-05-12 23:02:00,44.0,19.0,-100.00,NE,49,3.0,8.0,37,0.00,,,0.00,0.000000,,2013-05-13 04:02:00,
2013-05-12 23:12:00,41.0,18.0,-100.00,NE,47,2.0,7.0,39,0.00,,,0.00,0.000000,,2013-05-13 04:12:00,
2013-05-12 23:33:00,41.0,18.0,-100.00,NE,47,2.0,7.0,39,0.00,,,0.00,0.000000,,2013-05-13 04:33:00,
2013-05-12 23:42:00,41.0,18.0,-100.00,NE,47,2.0,7.0,39,0.00,,,0.00,0.000000,,2013-05-13 04:42:00,
2013-05-12 23:53:00,41.0,18.0,-100.00,NE,47,2.0,7.0,39,0.00,,,0.00,0.000000,,2013-05-13 04:53:00,